sensor_id;sensor_type;location;lat;lon;timestamp;P1;durP1;ratioP1;P2;durP2;ratioP2
9671;SDS011;4874;43.568;27.824;2023-07-02T00:00:07;3.20;;;1.30;;
9671;SDS011;4874;43.568;27.824;2023-07-02T00:02:36;3.13;;;1.10;;
9671;SDS011;4874;43.568;27.824;2023-07-02T00:05:03;3.33;;;1.55;;
9671;SDS011;4874;43.568;27.824;2023-07-02T00:07:30;2.20;;;1.30;;
9671;SDS011;4874;43.568;27.824;2023-07-02T00:09:57;2.15;;;1.35;;
9671;SDS011;4874;43.568;27.824;2023-07-02T00:12:24;2.35;;;1.50;;
9671;SDS011;4874;43.568;27.824;2023-07-02T00:14:51;4.28;;;2.20;;
9671;SDS011;4874;43.568;27.824;2023-07-02T00:17:19;2.03;;;1.30;;
9671;SDS011;4874;43.568;27.824;2023-07-02T00:19:46;2.00;;;1.20;;
9671;SDS011;4874;43.568;27.824;2023-07-02T00:22:18;3.95;;;1.52;;
9671;SDS011;4874;43.568;27.824;2023-07-02T00:24:45;3.08;;;1.50;;
9671;SDS011;4874;43.568;27.824;2023-07-02T00:27:12;3.72;;;1.60;;
9671;SDS011;4874;43.568;27.824;2023-07-02T00:29:38;3.50;;;1.48;;
9671;SDS011;4874;43.568;27.824;2023-07-02T00:32:05;2.33;;;1.38;;
9671;SDS011;4874;43.568;27.824;2023-07-02T00:34:32;4.18;;;1.60;;
9671;SDS011;4874;43.568;27.824;2023-07-02T00:36:59;2.70;;;1.52;;
9671;SDS011;4874;43.568;27.824;2023-07-02T00:39:25;4.00;;;1.73;;
9671;SDS011;4874;43.568;27.824;2023-07-02T00:41:52;3.10;;;1.75;;
9671;SDS011;4874;43.568;27.824;2023-07-02T00:44:19;3.17;;;1.55;;
9671;SDS011;4874;43.568;27.824;2023-07-02T00:46:48;3.22;;;1.60;;
9671;SDS011;4874;43.568;27.824;2023-07-02T00:49:15;4.65;;;1.70;;
9671;SDS011;4874;43.568;27.824;2023-07-02T00:51:42;2.83;;;1.63;;
9671;SDS011;4874;43.568;27.824;2023-07-02T00:54:09;3.50;;;1.65;;
9671;SDS011;4874;43.568;27.824;2023-07-02T00:56:35;3.10;;;1.40;;
9671;SDS011;4874;43.568;27.824;2023-07-02T00:59:02;3.78;;;1.75;;
9671;SDS011;4874;43.568;27.824;2023-07-02T01:01:29;3.03;;;1.60;;
9671;SDS011;4874;43.568;27.824;2023-07-02T01:04:01;2.55;;;1.60;;
9671;SDS011;4874;43.568;27.824;2023-07-02T01:06:33;3.40;;;1.58;;
9671;SDS011;4874;43.568;27.824;2023-07-02T01:09:04;2.63;;;1.60;;
9671;SDS011;4874;43.568;27.824;2023-07-02T01:14:22;3.45;;;1.80;;
9671;SDS011;4874;43.568;27.824;2023-07-02T01:16:57;3.13;;;1.67;;
9671;SDS011;4874;43.568;27.824;2023-07-02T01:19:44;4.97;;;1.73;;
9671;SDS011;4874;43.568;27.824;2023-07-02T01:22:20;3.67;;;1.80;;
9671;SDS011;4874;43.568;27.824;2023-07-02T01:24:50;3.85;;;1.63;;
9671;SDS011;4874;43.568;27.824;2023-07-02T01:27:17;3.35;;;1.80;;
9671;SDS011;4874;43.568;27.824;2023-07-02T01:29:44;4.70;;;1.60;;
9671;SDS011;4874;43.568;27.824;2023-07-02T01:32:13;3.17;;;1.60;;
9671;SDS011;4874;43.568;27.824;2023-07-02T01:34:40;2.75;;;1.75;;
9671;SDS011;4874;43.568;27.824;2023-07-02T01:37:07;2.67;;;1.52;;
9671;SDS011;4874;43.568;27.824;2023-07-02T01:39:35;4.15;;;1.65;;
9671;SDS011;4874;43.568;27.824;2023-07-02T01:42:12;3.42;;;1.63;;
9671;SDS011;4874;43.568;27.824;2023-07-02T01:44:43;4.45;;;1.75;;
9671;SDS011;4874;43.568;27.824;2023-07-02T01:47:11;2.60;;;1.70;;
9671;SDS011;4874;43.568;27.824;2023-07-02T01:49:38;5.15;;;1.77;;
9671;SDS011;4874;43.568;27.824;2023-07-02T01:52:06;2.72;;;1.63;;
9671;SDS011;4874;43.568;27.824;2023-07-02T01:54:33;2.83;;;1.58;;
9671;SDS011;4874;43.568;27.824;2023-07-02T01:57:00;4.38;;;1.70;;
9671;SDS011;4874;43.568;27.824;2023-07-02T01:59:27;3.50;;;1.80;;
9671;SDS011;4874;43.568;27.824;2023-07-02T02:01:54;4.63;;;1.85;;
9671;SDS011;4874;43.568;27.824;2023-07-02T02:04:21;4.63;;;1.85;;
9671;SDS011;4874;43.568;27.824;2023-07-02T02:06:48;4.10;;;1.95;;
9671;SDS011;4874;43.568;27.824;2023-07-02T02:09:14;4.50;;;2.35;;
9671;SDS011;4874;43.568;27.824;2023-07-02T02:11:42;4.28;;;1.70;;
9671;SDS011;4874;43.568;27.824;2023-07-02T02:14:11;3.38;;;2.00;;
9671;SDS011;4874;43.568;27.824;2023-07-02T02:16:38;5.78;;;2.38;;
9671;SDS011;4874;43.568;27.824;2023-07-02T02:19:05;4.68;;;2.40;;
9671;SDS011;4874;43.568;27.824;2023-07-02T02:21:32;3.40;;;1.88;;
9671;SDS011;4874;43.568;27.824;2023-07-02T02:23:59;4.32;;;2.00;;
9671;SDS011;4874;43.568;27.824;2023-07-02T02:26:26;3.60;;;1.50;;
9671;SDS011;4874;43.568;27.824;2023-07-02T02:28:52;3.92;;;2.08;;
9671;SDS011;4874;43.568;27.824;2023-07-02T02:31:19;2.78;;;1.65;;
9671;SDS011;4874;43.568;27.824;2023-07-02T02:33:46;4.25;;;2.08;;
9671;SDS011;4874;43.568;27.824;2023-07-02T02:36:13;4.60;;;2.35;;
9671;SDS011;4874;43.568;27.824;2023-07-02T02:38:39;3.53;;;2.20;;
9671;SDS011;4874;43.568;27.824;2023-07-02T02:41:06;6.45;;;2.00;;
9671;SDS011;4874;43.568;27.824;2023-07-02T02:43:34;3.60;;;2.15;;
9671;SDS011;4874;43.568;27.824;2023-07-02T02:46:01;4.20;;;2.25;;
9671;SDS011;4874;43.568;27.824;2023-07-02T02:48:28;3.28;;;2.00;;
9671;SDS011;4874;43.568;27.824;2023-07-02T02:50:55;4.00;;;2.38;;
9671;SDS011;4874;43.568;27.824;2023-07-02T02:53:22;3.67;;;2.25;;
9671;SDS011;4874;43.568;27.824;2023-07-02T02:55:48;4.70;;;2.15;;
9671;SDS011;4874;43.568;27.824;2023-07-02T02:58:15;5.65;;;2.10;;
9671;SDS011;4874;43.568;27.824;2023-07-02T03:00:42;3.13;;;2.30;;
9671;SDS011;4874;43.568;27.824;2023-07-02T03:03:12;5.38;;;2.20;;
9671;SDS011;4874;43.568;27.824;2023-07-02T03:05:39;4.55;;;2.40;;
9671;SDS011;4874;43.568;27.824;2023-07-02T03:08:06;10.48;;;2.75;;
9671;SDS011;4874;43.568;27.824;2023-07-02T03:10:33;5.63;;;2.35;;
9671;SDS011;4874;43.568;27.824;2023-07-02T03:13:00;3.35;;;2.15;;
9671;SDS011;4874;43.568;27.824;2023-07-02T03:15:26;3.92;;;2.47;;
9671;SDS011;4874;43.568;27.824;2023-07-02T03:17:53;3.42;;;2.28;;
9671;SDS011;4874;43.568;27.824;2023-07-02T03:20:20;4.97;;;2.70;;
9671;SDS011;4874;43.568;27.824;2023-07-02T03:22:47;4.43;;;2.58;;
9671;SDS011;4874;43.568;27.824;2023-07-02T03:25:15;4.55;;;2.25;;
9671;SDS011;4874;43.568;27.824;2023-07-02T03:27:42;5.10;;;2.58;;
9671;SDS011;4874;43.568;27.824;2023-07-02T03:30:09;6.03;;;2.10;;
9671;SDS011;4874;43.568;27.824;2023-07-02T03:32:36;5.13;;;2.03;;
9671;SDS011;4874;43.568;27.824;2023-07-02T03:35:02;3.88;;;2.33;;
9671;SDS011;4874;43.568;27.824;2023-07-02T03:37:29;3.13;;;2.30;;
9671;SDS011;4874;43.568;27.824;2023-07-02T03:39:56;4.97;;;2.30;;
9671;SDS011;4874;43.568;27.824;2023-07-02T03:42:25;5.18;;;2.17;;
9671;SDS011;4874;43.568;27.824;2023-07-02T03:44:51;3.75;;;2.28;;
9671;SDS011;4874;43.568;27.824;2023-07-02T03:47:18;4.53;;;2.67;;
9671;SDS011;4874;43.568;27.824;2023-07-02T03:49:45;3.78;;;2.15;;
9671;SDS011;4874;43.568;27.824;2023-07-02T03:52:13;5.05;;;2.50;;
9671;SDS011;4874;43.568;27.824;2023-07-02T03:54:40;4.43;;;2.53;;
9671;SDS011;4874;43.568;27.824;2023-07-02T03:57:06;6.53;;;2.60;;
9671;SDS011;4874;43.568;27.824;2023-07-02T03:59:34;4.75;;;2.58;;
9671;SDS011;4874;43.568;27.824;2023-07-02T04:02:01;6.13;;;2.80;;
9671;SDS011;4874;43.568;27.824;2023-07-02T04:04:28;6.15;;;2.65;;
9671;SDS011;4874;43.568;27.824;2023-07-02T04:06:54;6.28;;;2.85;;
9671;SDS011;4874;43.568;27.824;2023-07-02T04:09:21;4.75;;;2.63;;
9671;SDS011;4874;43.568;27.824;2023-07-02T04:11:48;4.00;;;2.70;;
9671;SDS011;4874;43.568;27.824;2023-07-02T04:14:15;5.13;;;2.50;;
9671;SDS011;4874;43.568;27.824;2023-07-02T04:16:43;3.35;;;2.17;;
9671;SDS011;4874;43.568;27.824;2023-07-02T04:19:11;4.20;;;2.78;;
9671;SDS011;4874;43.568;27.824;2023-07-02T04:21:38;5.65;;;2.60;;
9671;SDS011;4874;43.568;27.824;2023-07-02T04:24:05;4.53;;;2.58;;
9671;SDS011;4874;43.568;27.824;2023-07-02T04:26:32;4.85;;;2.47;;
9671;SDS011;4874;43.568;27.824;2023-07-02T04:29:13;5.05;;;2.45;;
9671;SDS011;4874;43.568;27.824;2023-07-02T04:31:40;4.38;;;2.50;;
9671;SDS011;4874;43.568;27.824;2023-07-02T04:34:07;3.80;;;2.30;;
9671;SDS011;4874;43.568;27.824;2023-07-02T04:36:33;3.78;;;2.38;;
9671;SDS011;4874;43.568;27.824;2023-07-02T04:39:00;4.70;;;2.20;;
9671;SDS011;4874;43.568;27.824;2023-07-02T04:41:27;5.00;;;2.58;;
9671;SDS011;4874;43.568;27.824;2023-07-02T04:43:55;7.00;;;2.38;;
9671;SDS011;4874;43.568;27.824;2023-07-02T04:46:22;3.40;;;2.20;;
9671;SDS011;4874;43.568;27.824;2023-07-02T04:48:49;5.13;;;2.30;;
9671;SDS011;4874;43.568;27.824;2023-07-02T04:51:16;4.60;;;2.30;;
9671;SDS011;4874;43.568;27.824;2023-07-02T04:53:43;6.38;;;2.78;;
9671;SDS011;4874;43.568;27.824;2023-07-02T04:56:09;4.32;;;2.50;;
9671;SDS011;4874;43.568;27.824;2023-07-02T04:58:36;5.00;;;2.38;;
9671;SDS011;4874;43.568;27.824;2023-07-02T05:01:03;5.57;;;2.50;;
9671;SDS011;4874;43.568;27.824;2023-07-02T05:03:31;4.88;;;2.45;;
9671;SDS011;4874;43.568;27.824;2023-07-02T05:05:57;3.97;;;2.50;;
9671;SDS011;4874;43.568;27.824;2023-07-02T05:08:24;5.05;;;2.78;;
9671;SDS011;4874;43.568;27.824;2023-07-02T05:10:51;4.85;;;2.58;;
9671;SDS011;4874;43.568;27.824;2023-07-02T05:13:18;5.68;;;3.03;;
9671;SDS011;4874;43.568;27.824;2023-07-02T05:15:45;4.50;;;2.80;;
9671;SDS011;4874;43.568;27.824;2023-07-02T05:18:12;4.93;;;2.80;;
9671;SDS011;4874;43.568;27.824;2023-07-02T05:20:39;4.38;;;2.70;;
9671;SDS011;4874;43.568;27.824;2023-07-02T05:23:06;5.78;;;2.85;;
9671;SDS011;4874;43.568;27.824;2023-07-02T05:25:32;5.00;;;2.78;;
9671;SDS011;4874;43.568;27.824;2023-07-02T05:28:00;3.88;;;2.70;;
9671;SDS011;4874;43.568;27.824;2023-07-02T05:30:28;5.32;;;2.83;;
9671;SDS011;4874;43.568;27.824;2023-07-02T05:32:55;5.10;;;2.83;;
9671;SDS011;4874;43.568;27.824;2023-07-02T05:35:22;6.22;;;2.83;;
9671;SDS011;4874;43.568;27.824;2023-07-02T05:37:48;7.63;;;2.47;;
9671;SDS011;4874;43.568;27.824;2023-07-02T05:40:15;5.70;;;2.60;;
9671;SDS011;4874;43.568;27.824;2023-07-02T05:42:42;5.13;;;2.92;;
9671;SDS011;4874;43.568;27.824;2023-07-02T05:45:09;4.93;;;2.90;;
9671;SDS011;4874;43.568;27.824;2023-07-02T05:47:37;4.28;;;2.70;;
9671;SDS011;4874;43.568;27.824;2023-07-02T05:50:04;4.22;;;2.63;;
9671;SDS011;4874;43.568;27.824;2023-07-02T05:52:32;4.88;;;2.67;;
9671;SDS011;4874;43.568;27.824;2023-07-02T05:54:59;7.68;;;3.28;;
9671;SDS011;4874;43.568;27.824;2023-07-02T05:57:26;6.35;;;2.90;;
9671;SDS011;4874;43.568;27.824;2023-07-02T05:59:52;7.13;;;3.22;;
9671;SDS011;4874;43.568;27.824;2023-07-02T06:02:19;5.22;;;2.92;;
9671;SDS011;4874;43.568;27.824;2023-07-02T06:04:46;5.68;;;2.95;;
9671;SDS011;4874;43.568;27.824;2023-07-02T06:07:13;4.80;;;3.13;;
9671;SDS011;4874;43.568;27.824;2023-07-02T06:09:39;5.28;;;3.00;;
9671;SDS011;4874;43.568;27.824;2023-07-02T06:12:06;7.65;;;3.20;;
9671;SDS011;4874;43.568;27.824;2023-07-02T06:14:33;5.78;;;2.83;;
9671;SDS011;4874;43.568;27.824;2023-07-02T06:17:00;4.97;;;3.20;;
9671;SDS011;4874;43.568;27.824;2023-07-02T06:19:27;5.38;;;3.15;;
9671;SDS011;4874;43.568;27.824;2023-07-02T06:21:54;5.88;;;2.75;;
9671;SDS011;4874;43.568;27.824;2023-07-02T06:24:20;8.20;;;3.22;;
9671;SDS011;4874;43.568;27.824;2023-07-02T06:26:47;4.13;;;2.92;;
9671;SDS011;4874;43.568;27.824;2023-07-02T06:29:14;5.28;;;2.60;;
9671;SDS011;4874;43.568;27.824;2023-07-02T06:31:41;4.82;;;3.00;;
9671;SDS011;4874;43.568;27.824;2023-07-02T06:34:08;6.10;;;3.45;;
9671;SDS011;4874;43.568;27.824;2023-07-02T06:36:35;4.32;;;2.80;;
9671;SDS011;4874;43.568;27.824;2023-07-02T06:39:01;5.43;;;3.00;;
9671;SDS011;4874;43.568;27.824;2023-07-02T06:41:28;6.53;;;2.67;;
9671;SDS011;4874;43.568;27.824;2023-07-02T06:43:55;4.38;;;2.58;;
9671;SDS011;4874;43.568;27.824;2023-07-02T06:46:22;5.57;;;2.72;;
9671;SDS011;4874;43.568;27.824;2023-07-02T06:48:49;4.68;;;2.88;;
9671;SDS011;4874;43.568;27.824;2023-07-02T06:51:16;4.88;;;2.63;;
9671;SDS011;4874;43.568;27.824;2023-07-02T06:53:44;5.07;;;2.50;;
9671;SDS011;4874;43.568;27.824;2023-07-02T06:56:11;4.63;;;2.72;;
9671;SDS011;4874;43.568;27.824;2023-07-02T06:58:39;6.35;;;3.10;;
9671;SDS011;4874;43.568;27.824;2023-07-02T07:01:08;3.45;;;2.92;;
9671;SDS011;4874;43.568;27.824;2023-07-02T07:03:35;4.85;;;2.90;;
9671;SDS011;4874;43.568;27.824;2023-07-02T07:06:02;4.72;;;2.85;;
9671;SDS011;4874;43.568;27.824;2023-07-02T07:08:29;4.43;;;2.92;;
9671;SDS011;4874;43.568;27.824;2023-07-02T07:10:56;4.25;;;2.80;;
9671;SDS011;4874;43.568;27.824;2023-07-02T07:13:22;5.15;;;2.80;;
9671;SDS011;4874;43.568;27.824;2023-07-02T07:15:49;5.50;;;3.05;;
9671;SDS011;4874;43.568;27.824;2023-07-02T07:18:16;4.18;;;2.78;;
9671;SDS011;4874;43.568;27.824;2023-07-02T07:20:45;4.60;;;2.70;;
9671;SDS011;4874;43.568;27.824;2023-07-02T07:23:12;5.68;;;3.00;;
9671;SDS011;4874;43.568;27.824;2023-07-02T07:25:38;4.80;;;3.00;;
9671;SDS011;4874;43.568;27.824;2023-07-02T07:28:05;5.10;;;3.20;;
9671;SDS011;4874;43.568;27.824;2023-07-02T07:30:32;4.18;;;2.80;;
9671;SDS011;4874;43.568;27.824;2023-07-02T07:32:59;5.50;;;3.55;;
9671;SDS011;4874;43.568;27.824;2023-07-02T07:35:26;6.55;;;3.47;;
9671;SDS011;4874;43.568;27.824;2023-07-02T07:37:52;6.35;;;3.65;;
9671;SDS011;4874;43.568;27.824;2023-07-02T07:40:19;7.32;;;3.67;;
9671;SDS011;4874;43.568;27.824;2023-07-02T07:42:46;5.70;;;3.50;;
9671;SDS011;4874;43.568;27.824;2023-07-02T07:45:12;5.88;;;4.22;;
9671;SDS011;4874;43.568;27.824;2023-07-02T07:47:39;5.15;;;3.58;;
9671;SDS011;4874;43.568;27.824;2023-07-02T07:50:06;5.47;;;3.80;;
9671;SDS011;4874;43.568;27.824;2023-07-02T07:52:38;5.07;;;3.50;;
9671;SDS011;4874;43.568;27.824;2023-07-02T07:55:05;4.43;;;3.85;;
9671;SDS011;4874;43.568;27.824;2023-07-02T07:57:33;4.65;;;3.67;;
9671;SDS011;4874;43.568;27.824;2023-07-02T08:00:03;5.22;;;3.53;;
9671;SDS011;4874;43.568;27.824;2023-07-02T08:02:31;6.97;;;3.55;;
9671;SDS011;4874;43.568;27.824;2023-07-02T08:04:58;4.70;;;3.50;;
9671;SDS011;4874;43.568;27.824;2023-07-02T08:07:25;4.72;;;3.75;;
9671;SDS011;4874;43.568;27.824;2023-07-02T08:09:52;4.57;;;3.40;;
9671;SDS011;4874;43.568;27.824;2023-07-02T08:12:18;5.60;;;3.85;;
9671;SDS011;4874;43.568;27.824;2023-07-02T08:14:45;4.32;;;3.60;;
9671;SDS011;4874;43.568;27.824;2023-07-02T08:17:12;4.55;;;3.53;;
9671;SDS011;4874;43.568;27.824;2023-07-02T08:19:43;5.30;;;3.08;;
9671;SDS011;4874;43.568;27.824;2023-07-02T08:22:10;5.07;;;3.75;;
9671;SDS011;4874;43.568;27.824;2023-07-02T08:24:37;5.05;;;3.70;;
9671;SDS011;4874;43.568;27.824;2023-07-02T08:27:04;5.13;;;3.50;;
9671;SDS011;4874;43.568;27.824;2023-07-02T08:30:29;5.00;;;3.53;;
9671;SDS011;4874;43.568;27.824;2023-07-02T08:32:56;6.45;;;4.55;;
9671;SDS011;4874;43.568;27.824;2023-07-02T08:35:23;5.68;;;3.75;;
9671;SDS011;4874;43.568;27.824;2023-07-02T08:37:49;5.72;;;3.55;;
9671;SDS011;4874;43.568;27.824;2023-07-02T08:40:17;5.65;;;4.07;;
9671;SDS011;4874;43.568;27.824;2023-07-02T08:42:45;6.43;;;3.85;;
9671;SDS011;4874;43.568;27.824;2023-07-02T08:45:16;5.85;;;3.38;;
9671;SDS011;4874;43.568;27.824;2023-07-02T08:47:43;4.53;;;3.50;;
9671;SDS011;4874;43.568;27.824;2023-07-02T08:50:12;4.45;;;3.67;;
9671;SDS011;4874;43.568;27.824;2023-07-02T08:52:40;5.13;;;3.80;;
9671;SDS011;4874;43.568;27.824;2023-07-02T08:55:07;4.63;;;3.67;;
9671;SDS011;4874;43.568;27.824;2023-07-02T08:57:36;5.70;;;3.53;;
9671;SDS011;4874;43.568;27.824;2023-07-02T09:00:04;7.35;;;3.50;;
9671;SDS011;4874;43.568;27.824;2023-07-02T09:02:35;6.60;;;3.15;;
9671;SDS011;4874;43.568;27.824;2023-07-02T09:05:02;5.15;;;3.95;;
9671;SDS011;4874;43.568;27.824;2023-07-02T09:07:30;4.85;;;3.25;;
9671;SDS011;4874;43.568;27.824;2023-07-02T09:09:57;5.65;;;3.50;;
9671;SDS011;4874;43.568;27.824;2023-07-02T09:12:33;4.82;;;3.55;;
9671;SDS011;4874;43.568;27.824;2023-07-02T09:15:02;5.32;;;3.60;;
9671;SDS011;4874;43.568;27.824;2023-07-02T09:17:33;5.00;;;3.20;;
9671;SDS011;4874;43.568;27.824;2023-07-02T09:20:03;6.03;;;3.42;;
9671;SDS011;4874;43.568;27.824;2023-07-02T09:22:33;4.22;;;3.33;;
9671;SDS011;4874;43.568;27.824;2023-07-02T09:25:01;5.30;;;3.30;;
9671;SDS011;4874;43.568;27.824;2023-07-02T09:27:38;4.93;;;3.13;;
9671;SDS011;4874;43.568;27.824;2023-07-02T09:30:11;3.88;;;3.33;;
9671;SDS011;4874;43.568;27.824;2023-07-02T09:32:43;5.97;;;3.85;;
9671;SDS011;4874;43.568;27.824;2023-07-02T09:35:11;5.72;;;3.50;;
9671;SDS011;4874;43.568;27.824;2023-07-02T09:37:39;4.00;;;2.97;;
9671;SDS011;4874;43.568;27.824;2023-07-02T09:40:09;6.32;;;3.47;;
9671;SDS011;4874;43.568;27.824;2023-07-02T09:42:37;6.50;;;3.17;;
9671;SDS011;4874;43.568;27.824;2023-07-02T09:45:07;6.40;;;2.83;;
9671;SDS011;4874;43.568;27.824;2023-07-02T09:47:37;6.05;;;3.10;;
9671;SDS011;4874;43.568;27.824;2023-07-02T09:50:08;4.00;;;2.97;;
9671;SDS011;4874;43.568;27.824;2023-07-02T09:52:37;4.05;;;3.00;;
9671;SDS011;4874;43.568;27.824;2023-07-02T09:55:05;5.07;;;3.33;;
9671;SDS011;4874;43.568;27.824;2023-07-02T09:57:33;3.97;;;2.95;;
9671;SDS011;4874;43.568;27.824;2023-07-02T10:00:01;3.70;;;2.72;;
9671;SDS011;4874;43.568;27.824;2023-07-02T10:02:30;4.22;;;2.88;;
9671;SDS011;4874;43.568;27.824;2023-07-02T10:04:57;5.13;;;3.10;;
9671;SDS011;4874;43.568;27.824;2023-07-02T10:07:27;6.30;;;3.03;;
9671;SDS011;4874;43.568;27.824;2023-07-02T10:09:55;3.38;;;2.70;;
9671;SDS011;4874;43.568;27.824;2023-07-02T10:14:54;3.55;;;2.85;;
9671;SDS011;4874;43.568;27.824;2023-07-02T10:17:25;3.70;;;2.70;;
9671;SDS011;4874;43.568;27.824;2023-07-02T10:20:03;6.38;;;2.85;;
9671;SDS011;4874;43.568;27.824;2023-07-02T10:22:47;6.18;;;3.45;;
9671;SDS011;4874;43.568;27.824;2023-07-02T10:25:29;7.25;;;2.80;;
9671;SDS011;4874;43.568;27.824;2023-07-02T10:27:58;4.82;;;2.90;;
9671;SDS011;4874;43.568;27.824;2023-07-02T10:30:35;6.43;;;2.80;;
9671;SDS011;4874;43.568;27.824;2023-07-02T10:33:13;6.03;;;2.85;;
9671;SDS011;4874;43.568;27.824;2023-07-02T10:35:44;7.28;;;2.72;;
9671;SDS011;4874;43.568;27.824;2023-07-02T10:38:22;4.82;;;2.70;;
9671;SDS011;4874;43.568;27.824;2023-07-02T10:40:54;5.88;;;2.90;;
9671;SDS011;4874;43.568;27.824;2023-07-02T10:43:25;5.88;;;3.00;;
9671;SDS011;4874;43.568;27.824;2023-07-02T10:45:56;4.15;;;2.63;;
9671;SDS011;4874;43.568;27.824;2023-07-02T10:48:26;5.80;;;3.00;;
9671;SDS011;4874;43.568;27.824;2023-07-02T10:50:53;4.43;;;2.85;;
9671;SDS011;4874;43.568;27.824;2023-07-02T10:53:19;4.47;;;2.88;;
9671;SDS011;4874;43.568;27.824;2023-07-02T10:55:53;4.28;;;3.00;;
9671;SDS011;4874;43.568;27.824;2023-07-02T10:58:22;8.67;;;3.50;;
9671;SDS011;4874;43.568;27.824;2023-07-02T11:00:50;5.30;;;2.72;;
9671;SDS011;4874;43.568;27.824;2023-07-02T11:05:49;5.45;;;3.00;;
9671;SDS011;4874;43.568;27.824;2023-07-02T11:08:17;6.72;;;2.50;;
9671;SDS011;4874;43.568;27.824;2023-07-02T11:10:44;3.53;;;2.95;;
9671;SDS011;4874;43.568;27.824;2023-07-02T11:13:14;6.05;;;2.90;;
9671;SDS011;4874;43.568;27.824;2023-07-02T11:15:45;4.60;;;2.80;;
9671;SDS011;4874;43.568;27.824;2023-07-02T11:18:13;8.75;;;2.70;;
9671;SDS011;4874;43.568;27.824;2023-07-02T11:20:42;5.25;;;3.00;;
9671;SDS011;4874;43.568;27.824;2023-07-02T11:23:44;6.13;;;3.03;;
9671;SDS011;4874;43.568;27.824;2023-07-02T11:26:03;4.32;;;3.25;;
9671;SDS011;4874;43.568;27.824;2023-07-02T11:28:31;6.05;;;3.17;;
9671;SDS011;4874;43.568;27.824;2023-07-02T11:30:58;5.53;;;2.95;;
9671;SDS011;4874;43.568;27.824;2023-07-02T11:33:38;5.20;;;2.65;;
9671;SDS011;4874;43.568;27.824;2023-07-02T11:36:06;5.65;;;2.75;;
9671;SDS011;4874;43.568;27.824;2023-07-02T11:38:36;4.53;;;2.90;;
9671;SDS011;4874;43.568;27.824;2023-07-02T11:41:03;6.32;;;2.80;;
9671;SDS011;4874;43.568;27.824;2023-07-02T11:43:30;4.88;;;3.35;;
9671;SDS011;4874;43.568;27.824;2023-07-02T11:45:57;4.55;;;2.75;;
9671;SDS011;4874;43.568;27.824;2023-07-02T11:48:24;4.30;;;2.72;;
9671;SDS011;4874;43.568;27.824;2023-07-02T11:50:50;5.18;;;2.63;;
9671;SDS011;4874;43.568;27.824;2023-07-02T11:53:17;4.60;;;2.72;;
9671;SDS011;4874;43.568;27.824;2023-07-02T11:55:44;4.82;;;2.85;;
9671;SDS011;4874;43.568;27.824;2023-07-02T11:58:11;6.35;;;2.78;;
9671;SDS011;4874;43.568;27.824;2023-07-02T12:00:37;7.82;;;2.67;;
9671;SDS011;4874;43.568;27.824;2023-07-02T12:03:04;4.65;;;2.67;;
9671;SDS011;4874;43.568;27.824;2023-07-02T12:05:31;6.72;;;2.80;;
9671;SDS011;4874;43.568;27.824;2023-07-02T12:07:58;4.13;;;2.75;;
9671;SDS011;4874;43.568;27.824;2023-07-02T12:10:24;5.32;;;2.60;;
9671;SDS011;4874;43.568;27.824;2023-07-02T12:12:51;5.60;;;2.97;;
9671;SDS011;4874;43.568;27.824;2023-07-02T12:15:18;5.28;;;2.63;;
9671;SDS011;4874;43.568;27.824;2023-07-02T12:17:46;4.30;;;2.55;;
9671;SDS011;4874;43.568;27.824;2023-07-02T12:20:13;4.18;;;2.40;;
9671;SDS011;4874;43.568;27.824;2023-07-02T12:22:39;4.15;;;2.40;;
9671;SDS011;4874;43.568;27.824;2023-07-02T12:25:06;4.47;;;2.65;;
9671;SDS011;4874;43.568;27.824;2023-07-02T12:27:33;3.88;;;2.45;;
9671;SDS011;4874;43.568;27.824;2023-07-02T12:30:00;3.97;;;2.63;;
9671;SDS011;4874;43.568;27.824;2023-07-02T12:32:27;5.43;;;2.85;;
9671;SDS011;4874;43.568;27.824;2023-07-02T12:34:54;6.05;;;2.85;;
9671;SDS011;4874;43.568;27.824;2023-07-02T12:37:20;7.55;;;3.00;;
9671;SDS011;4874;43.568;27.824;2023-07-02T12:39:47;5.47;;;3.17;;
9671;SDS011;4874;43.568;27.824;2023-07-02T12:42:14;4.50;;;2.88;;
9671;SDS011;4874;43.568;27.824;2023-07-02T12:44:41;3.92;;;2.90;;
9671;SDS011;4874;43.568;27.824;2023-07-02T12:47:07;4.78;;;2.72;;
9671;SDS011;4874;43.568;27.824;2023-07-02T12:49:35;4.55;;;2.70;;
9671;SDS011;4874;43.568;27.824;2023-07-02T12:52:02;3.25;;;2.40;;
9671;SDS011;4874;43.568;27.824;2023-07-02T12:54:29;4.90;;;2.50;;
9671;SDS011;4874;43.568;27.824;2023-07-02T12:56:56;4.97;;;3.03;;
9671;SDS011;4874;43.568;27.824;2023-07-02T12:59:22;5.80;;;2.60;;
9671;SDS011;4874;43.568;27.824;2023-07-02T13:01:49;4.03;;;2.63;;
9671;SDS011;4874;43.568;27.824;2023-07-02T13:04:16;4.93;;;2.40;;
9671;SDS011;4874;43.568;27.824;2023-07-02T13:06:43;6.80;;;2.97;;
9671;SDS011;4874;43.568;27.824;2023-07-02T13:09:11;3.47;;;2.50;;
9671;SDS011;4874;43.568;27.824;2023-07-02T13:11:38;5.45;;;2.88;;
9671;SDS011;4874;43.568;27.824;2023-07-02T13:14:05;4.50;;;2.95;;
9671;SDS011;4874;43.568;27.824;2023-07-02T13:16:32;4.45;;;2.70;;
9671;SDS011;4874;43.568;27.824;2023-07-02T13:18:59;5.25;;;2.60;;
9671;SDS011;4874;43.568;27.824;2023-07-02T13:21:28;3.53;;;2.65;;
9671;SDS011;4874;43.568;27.824;2023-07-02T13:23:55;5.90;;;2.88;;
9671;SDS011;4874;43.568;27.824;2023-07-02T13:26:22;3.95;;;2.25;;
9671;SDS011;4874;43.568;27.824;2023-07-02T13:28:48;3.80;;;2.47;;
9671;SDS011;4874;43.568;27.824;2023-07-02T13:31:15;3.40;;;2.40;;
9671;SDS011;4874;43.568;27.824;2023-07-02T13:33:42;6.57;;;2.92;;
9671;SDS011;4874;43.568;27.824;2023-07-02T13:36:09;7.20;;;2.60;;
9671;SDS011;4874;43.568;27.824;2023-07-02T13:38:36;4.47;;;2.90;;
9671;SDS011;4874;43.568;27.824;2023-07-02T13:41:02;5.28;;;3.08;;
9671;SDS011;4874;43.568;27.824;2023-07-02T13:43:29;7.05;;;3.00;;
9671;SDS011;4874;43.568;27.824;2023-07-02T13:45:56;4.38;;;2.60;;
9671;SDS011;4874;43.568;27.824;2023-07-02T13:48:23;5.82;;;2.90;;
9671;SDS011;4874;43.568;27.824;2023-07-02T13:50:51;5.60;;;2.85;;
9671;SDS011;4874;43.568;27.824;2023-07-02T13:53:18;6.55;;;3.08;;
9671;SDS011;4874;43.568;27.824;2023-07-02T13:55:45;9.75;;;3.30;;
9671;SDS011;4874;43.568;27.824;2023-07-02T13:58:12;5.72;;;2.80;;
9671;SDS011;4874;43.568;27.824;2023-07-02T14:00:42;5.50;;;3.00;;
9671;SDS011;4874;43.568;27.824;2023-07-02T14:03:09;10.15;;;3.10;;
9671;SDS011;4874;43.568;27.824;2023-07-02T14:05:36;7.18;;;3.30;;
9671;SDS011;4874;43.568;27.824;2023-07-02T14:08:03;4.88;;;3.50;;
9671;SDS011;4874;43.568;27.824;2023-07-02T14:10:29;7.65;;;2.75;;
9671;SDS011;4874;43.568;27.824;2023-07-02T14:12:56;6.03;;;3.08;;
9671;SDS011;4874;43.568;27.824;2023-07-02T14:15:24;7.97;;;3.47;;
9671;SDS011;4874;43.568;27.824;2023-07-02T14:17:51;7.78;;;3.53;;
9671;SDS011;4874;43.568;27.824;2023-07-02T14:20:18;7.30;;;4.05;;
9671;SDS011;4874;43.568;27.824;2023-07-02T14:22:45;7.28;;;3.92;;
9671;SDS011;4874;43.568;27.824;2023-07-02T14:25:14;7.18;;;4.30;;
9671;SDS011;4874;43.568;27.824;2023-07-02T14:27:50;8.32;;;4.60;;
9671;SDS011;4874;43.568;27.824;2023-07-02T14:30:17;9.20;;;5.50;;
9671;SDS011;4874;43.568;27.824;2023-07-02T14:32:43;11.15;;;4.70;;
9671;SDS011;4874;43.568;27.824;2023-07-02T14:35:10;8.80;;;5.25;;
9671;SDS011;4874;43.568;27.824;2023-07-02T14:37:37;7.28;;;4.40;;
9671;SDS011;4874;43.568;27.824;2023-07-02T14:40:04;6.60;;;4.57;;
9671;SDS011;4874;43.568;27.824;2023-07-02T14:42:32;8.15;;;5.03;;
9671;SDS011;4874;43.568;27.824;2023-07-02T14:44:59;8.55;;;4.55;;
9671;SDS011;4874;43.568;27.824;2023-07-02T14:47:26;7.07;;;5.10;;
9671;SDS011;4874;43.568;27.824;2023-07-02T14:49:53;7.20;;;4.50;;
9671;SDS011;4874;43.568;27.824;2023-07-02T14:52:19;6.03;;;4.43;;
9671;SDS011;4874;43.568;27.824;2023-07-02T14:54:46;7.68;;;4.60;;
9671;SDS011;4874;43.568;27.824;2023-07-02T14:57:13;7.32;;;4.20;;
9671;SDS011;4874;43.568;27.824;2023-07-02T14:59:40;8.15;;;4.38;;
9671;SDS011;4874;43.568;27.824;2023-07-02T15:02:07;5.97;;;4.60;;
9671;SDS011;4874;43.568;27.824;2023-07-02T15:04:34;7.70;;;4.43;;
9671;SDS011;4874;43.568;27.824;2023-07-02T15:07:01;10.10;;;5.10;;
9671;SDS011;4874;43.568;27.824;2023-07-02T15:09:28;11.25;;;5.38;;
9671;SDS011;4874;43.568;27.824;2023-07-02T15:11:54;15.85;;;5.95;;